sensor_id;sensor_type;location;lat;lon;timestamp;pressure;altitude;pressure_sealevel;temperature;humidity
47366;BME280;33105;47.964;7.982;2023-12-07T00:01:53;97047.06;;;0.54;100.00
47366;BME280;33105;47.964;7.982;2023-12-07T00:04:55;97051.50;;;0.61;100.00
47366;BME280;33105;47.964;7.982;2023-12-07T00:07:56;97044.34;;;0.68;100.00
47366;BME280;33105;47.964;7.982;2023-12-07T00:10:58;97035.25;;;0.70;100.00
47366;BME280;33105;47.964;7.982;2023-12-07T00:14:03;97034.88;;;0.73;100.00
47366;BME280;33105;47.964;7.982;2023-12-07T00:17:05;97033.56;;;0.90;100.00
47366;BME280;33105;47.964;7.982;2023-12-07T00:20:06;97032.34;;;0.92;100.00
47366;BME280;33105;47.964;7.982;2023-12-07T00:23:08;97034.00;;;0.93;100.00
47366;BME280;33105;47.964;7.982;2023-12-07T00:26:10;97029.84;;;0.91;100.00
47366;BME280;33105;47.964;7.982;2023-12-07T00:29:12;97036.63;;;0.87;100.00
47366;BME280;33105;47.964;7.982;2023-12-07T00:32:13;97037.38;;;0.74;100.00
47366;BME280;33105;47.964;7.982;2023-12-07T00:35:15;97035.91;;;0.72;100.00
47366;BME280;33105;47.964;7.982;2023-12-07T00:38:17;97037.50;;;0.66;100.00
47366;BME280;33105;47.964;7.982;2023-12-07T00:41:19;97045.94;;;0.63;100.00
47366;BME280;33105;47.964;7.982;2023-12-07T00:44:20;97049.06;;;0.66;100.00
47366;BME280;33105;47.964;7.982;2023-12-07T00:47:22;97049.34;;;0.72;100.00
47366;BME280;33105;47.964;7.982;2023-12-07T00:50:23;97037.75;;;0.71;100.00
47366;BME280;33105;47.964;7.982;2023-12-07T00:53:25;97045.75;;;0.64;100.00
47366;BME280;33105;47.964;7.982;2023-12-07T00:56:26;97042.03;;;0.65;100.00
47366;BME280;33105;47.964;7.982;2023-12-07T00:59:27;97045.75;;;0.64;100.00
47366;BME280;33105;47.964;7.982;2023-12-07T01:02:34;97053.81;;;0.64;100.00
47366;BME280;33105;47.964;7.982;2023-12-07T01:05:36;97051.56;;;0.68;100.00
47366;BME280;33105;47.964;7.982;2023-12-07T01:08:37;97046.03;;;0.76;100.00
47366;BME280;33105;47.964;7.982;2023-12-07T01:11:39;97055.97;;;0.76;100.00
47366;BME280;33105;47.964;7.982;2023-12-07T01:14:41;97044.59;;;0.74;100.00
47366;BME280;33105;47.964;7.982;2023-12-07T01:17:46;97051.50;;;0.61;100.00
47366;BME280;33105;47.964;7.982;2023-12-07T01:20:48;97055.16;;;0.54;100.00
47366;BME280;33105;47.964;7.982;2023-12-07T01:23:49;97054.47;;;0.45;100.00
47366;BME280;33105;47.964;7.982;2023-12-07T01:26:50;97049.19;;;0.37;100.00
47366;BME280;33105;47.964;7.982;2023-12-07T01:29:52;97063.34;;;0.46;100.00
47366;BME280;33105;47.964;7.982;2023-12-07T01:32:54;97063.41;;;0.52;100.00
47366;BME280;33105;47.964;7.982;2023-12-07T01:35:56;97068.34;;;0.49;100.00
47366;BME280;33105;47.964;7.982;2023-12-07T01:38:58;97061.88;;;0.43;100.00
47366;BME280;33105;47.964;7.982;2023-12-07T01:41:59;97062.13;;;0.48;100.00
47366;BME280;33105;47.964;7.982;2023-12-07T01:45:00;97059.56;;;0.40;100.00
47366;BME280;33105;47.964;7.982;2023-12-07T01:48:02;97058.38;;;0.28;100.00
47366;BME280;33105;47.964;7.982;2023-12-07T01:51:03;97047.78;;;0.20;100.00
47366;BME280;33105;47.964;7.982;2023-12-07T01:54:04;97057.78;;;0.11;100.00
47366;BME280;33105;47.964;7.982;2023-12-07T01:57:06;97056.69;;;0.06;100.00
47366;BME280;33105;47.964;7.982;2023-12-07T02:00:08;97054.78;;;-0.01;100.00
47366;BME280;33105;47.964;7.982;2023-12-07T02:03:11;97051.88;;;0.01;100.00
47366;BME280;33105;47.964;7.982;2023-12-07T02:06:13;97051.38;;;-0.09;100.00
47366;BME280;33105;47.964;7.982;2023-12-07T02:09:15;97045.34;;;-0.11;100.00
47366;BME280;33105;47.964;7.982;2023-12-07T02:12:16;97055.25;;;-0.12;100.00
47366;BME280;33105;47.964;7.982;2023-12-07T02:15:19;97061.47;;;-0.11;100.00
47366;BME280;33105;47.964;7.982;2023-12-07T02:21:38;97065.16;;;-0.12;100.00
47366;BME280;33105;47.964;7.982;2023-12-07T02:28:00;97066.63;;;-0.24;100.00
47366;BME280;33105;47.964;7.982;2023-12-07T02:31:01;97070.84;;;-0.37;100.00
47366;BME280;33105;47.964;7.982;2023-12-07T02:34:02;97073.06;;;-0.40;100.00
47366;BME280;33105;47.964;7.982;2023-12-07T02:37:05;97074.06;;;-0.41;100.00
47366;BME280;33105;47.964;7.982;2023-12-07T02:40:08;97077.47;;;-0.47;100.00
47366;BME280;33105;47.964;7.982;2023-12-07T02:43:13;97089.44;;;-0.50;100.00
47366;BME280;33105;47.964;7.982;2023-12-07T02:46:15;97083.88;;;-0.48;100.00
47366;BME280;33105;47.964;7.982;2023-12-07T02:49:17;97085.66;;;-0.55;100.00
47366;BME280;33105;47.964;7.982;2023-12-07T02:52:18;97082.69;;;-0.60;100.00
47366;BME280;33105;47.964;7.982;2023-12-07T02:55:19;97081.72;;;-0.68;100.00
47366;BME280;33105;47.964;7.982;2023-12-07T02:58:20;97076.25;;;-0.74;100.00
47366;BME280;33105;47.964;7.982;2023-12-07T03:01:22;97086.56;;;-0.78;100.00
47366;BME280;33105;47.964;7.982;2023-12-07T03:04:23;97085.53;;;-0.77;100.00
47366;BME280;33105;47.964;7.982;2023-12-07T03:07:24;97080.59;;;-0.88;100.00
47366;BME280;33105;47.964;7.982;2023-12-07T03:10:26;97077.31;;;-1.13;100.00
47366;BME280;33105;47.964;7.982;2023-12-07T03:13:27;97067.22;;;-1.25;100.00
47366;BME280;33105;47.964;7.982;2023-12-07T03:16:29;97078.31;;;-1.28;100.00
47366;BME280;33105;47.964;7.982;2023-12-07T03:19:31;97076.00;;;-1.17;100.00
47366;BME280;33105;47.964;7.982;2023-12-07T03:22:32;97068.88;;;-1.24;100.00
47366;BME280;33105;47.964;7.982;2023-12-07T03:25:34;97062.91;;;-1.12;100.00
47366;BME280;33105;47.964;7.982;2023-12-07T03:28:37;97063.38;;;-1.08;100.00
47366;BME280;33105;47.964;7.982;2023-12-07T03:31:39;97070.97;;;-0.97;100.00
47366;BME280;33105;47.964;7.982;2023-12-07T03:34:40;97067.31;;;-0.66;100.00
47366;BME280;33105;47.964;7.982;2023-12-07T03:37:41;97073.78;;;-0.76;100.00
47366;BME280;33105;47.964;7.982;2023-12-07T03:40:43;97071.53;;;-0.87;100.00
47366;BME280;33105;47.964;7.982;2023-12-07T03:43:48;97067.50;;;-0.83;100.00
47366;BME280;33105;47.964;7.982;2023-12-07T03:46:50;97069.59;;;-0.93;100.00
47366;BME280;33105;47.964;7.982;2023-12-07T03:49:51;97069.94;;;-0.96;100.00
47366;BME280;33105;47.964;7.982;2023-12-07T03:52:53;97066.25;;;-0.95;100.00
47366;BME280;33105;47.964;7.982;2023-12-07T03:55:55;97067.91;;;-1.09;100.00
47366;BME280;33105;47.964;7.982;2023-12-07T03:58:56;97076.84;;;-1.16;100.00
47366;BME280;33105;47.964;7.982;2023-12-07T04:01:58;97080.28;;;-1.08;100.00
47366;BME280;33105;47.964;7.982;2023-12-07T04:04:59;97075.81;;;-1.15;100.00
47366;BME280;33105;47.964;7.982;2023-12-07T04:08:03;97080.84;;;-1.12;100.00
47366;BME280;33105;47.964;7.982;2023-12-07T04:11:06;97077.94;;;-1.25;100.00
47366;BME280;33105;47.964;7.982;2023-12-07T04:14:07;97076.47;;;-1.51;100.00
47366;BME280;33105;47.964;7.982;2023-12-07T04:17:09;97071.97;;;-1.35;100.00
47366;BME280;33105;47.964;7.982;2023-12-07T04:20:10;97070.06;;;-1.27;100.00
47366;BME280;33105;47.964;7.982;2023-12-07T04:23:12;97076.44;;;-1.28;100.00
47366;BME280;33105;47.964;7.982;2023-12-07T04:26:13;97076.38;;;-1.20;100.00
47366;BME280;33105;47.964;7.982;2023-12-07T04:29:16;97072.91;;;-0.91;100.00
47366;BME280;33105;47.964;7.982;2023-12-07T04:32:17;97070.53;;;-0.86;100.00
47366;BME280;33105;47.964;7.982;2023-12-07T04:35:18;97072.56;;;-0.88;100.00
47366;BME280;33105;47.964;7.982;2023-12-07T04:38:20;97067.09;;;-0.94;100.00
47366;BME280;33105;47.964;7.982;2023-12-07T04:41:21;97066.25;;;-0.95;100.00
47366;BME280;33105;47.964;7.982;2023-12-07T04:44:23;97065.59;;;-0.97;100.00
47366;BME280;33105;47.964;7.982;2023-12-07T04:47:28;97071.34;;;-1.00;100.00
47366;BME280;33105;47.964;7.982;2023-12-07T04:50:30;97058.78;;;-0.99;100.00
47366;BME280;33105;47.964;7.982;2023-12-07T04:53:31;97061.34;;;-1.06;100.00
47366;BME280;33105;47.964;7.982;2023-12-07T04:56:33;97060.34;;;-1.05;100.00
47366;BME280;33105;47.964;7.982;2023-12-07T04:59:34;97062.78;;;-1.18;100.00
47366;BME280;33105;47.964;7.982;2023-12-07T05:02:36;97063.25;;;-1.15;100.00
47366;BME280;33105;47.964;7.982;2023-12-07T05:05:40;97063.72;;;-1.26;100.00
47366;BME280;33105;47.964;7.982;2023-12-07T05:08:42;97065.28;;;-1.17;100.00
47366;BME280;33105;47.964;7.982;2023-12-07T05:11:44;97065.09;;;-1.15;100.00
47366;BME280;33105;47.964;7.982;2023-12-07T05:14:47;97057.72;;;-1.13;100.00
47366;BME280;33105;47.964;7.982;2023-12-07T05:17:49;97060.41;;;-1.13;100.00
47366;BME280;33105;47.964;7.982;2023-12-07T05:20:50;97059.75;;;-1.15;100.00
47366;BME280;33105;47.964;7.982;2023-12-07T05:23:52;97057.06;;;-1.15;100.00
47366;BME280;33105;47.964;7.982;2023-12-07T05:26:54;97058.94;;;-1.39;100.00
47366;BME280;33105;47.964;7.982;2023-12-07T05:29:56;97059.91;;;-1.31;100.00
47366;BME280;33105;47.964;7.982;2023-12-07T05:32:58;97060.78;;;-1.39;100.00
47366;BME280;33105;47.964;7.982;2023-12-07T05:36:00;97064.47;;;-1.40;100.00
47366;BME280;33105;47.964;7.982;2023-12-07T05:39:03;97047.56;;;-1.41;100.00
47366;BME280;33105;47.964;7.982;2023-12-07T05:42:08;97058.53;;;-1.27;100.00
47366;BME280;33105;47.964;7.982;2023-12-07T05:45:10;97060.56;;;-1.15;100.00
47366;BME280;33105;47.964;7.982;2023-12-07T05:48:12;97069.56;;;-1.08;100.00
47366;BME280;33105;47.964;7.982;2023-12-07T05:51:15;97068.78;;;-1.16;100.00
47366;BME280;33105;47.964;7.982;2023-12-07T05:54:17;97065.78;;;-0.98;100.00
47366;BME280;33105;47.964;7.982;2023-12-07T05:57:19;97057.13;;;-1.23;100.00
47366;BME280;33105;47.964;7.982;2023-12-07T06:00:25;97059.72;;;-1.53;100.00
47366;BME280;33105;47.964;7.982;2023-12-07T06:03:27;97061.50;;;-1.45;100.00
47366;BME280;33105;47.964;7.982;2023-12-07T06:06:28;97054.06;;;-1.35;100.00
47366;BME280;33105;47.964;7.982;2023-12-07T06:09:29;97057.88;;;-1.29;100.00
47366;BME280;33105;47.964;7.982;2023-12-07T06:12:30;97075.50;;;-1.35;100.00
47366;BME280;33105;47.964;7.982;2023-12-07T06:15:33;97069.34;;;-1.44;100.00
47366;BME280;33105;47.964;7.982;2023-12-07T06:18:36;97078.19;;;-1.35;100.00
47366;BME280;33105;47.964;7.982;2023-12-07T06:21:39;97076.97;;;-1.32;100.00
47366;BME280;33105;47.964;7.982;2023-12-07T06:24:41;97072.03;;;-1.44;100.00
47366;BME280;33105;47.964;7.982;2023-12-07T06:27:43;97080.06;;;-1.44;100.00
47366;BME280;33105;47.964;7.982;2023-12-07T06:30:46;97078.06;;;-1.42;100.00
47366;BME280;33105;47.964;7.982;2023-12-07T06:33:48;97073.78;;;-1.51;100.00
47366;BME280;33105;47.964;7.982;2023-12-07T06:36:49;97077.56;;;-1.45;100.00
47366;BME280;33105;47.964;7.982;2023-12-07T06:39:51;97069.72;;;-1.47;100.00
47366;BME280;33105;47.964;7.982;2023-12-07T06:42:52;97061.84;;;-1.48;100.00
47366;BME280;33105;47.964;7.982;2023-12-07T06:45:55;97065.75;;;-1.51;100.00
47366;BME280;33105;47.964;7.982;2023-12-07T06:48:57;97062.94;;;-1.34;100.00
47366;BME280;33105;47.964;7.982;2023-12-07T06:51:58;97059.00;;;-1.47;100.00
47366;BME280;33105;47.964;7.982;2023-12-07T06:55:01;97057.53;;;-1.49;100.00
47366;BME280;33105;47.964;7.982;2023-12-07T06:58:03;97065.50;;;-1.41;100.00
47366;BME280;33105;47.964;7.982;2023-12-07T07:01:05;97054.78;;;-1.41;100.00
47366;BME280;33105;47.964;7.982;2023-12-07T07:04:07;97053.56;;;-1.39;100.00
47366;BME280;33105;47.964;7.982;2023-12-07T07:07:09;97050.06;;;-1.39;100.00
47366;BME280;33105;47.964;7.982;2023-12-07T07:10:11;97043.34;;;-1.35;100.00
47366;BME280;33105;47.964;7.982;2023-12-07T07:13:13;97040.19;;;-1.39;100.00
47366;BME280;33105;47.964;7.982;2023-12-07T07:16:16;97036.13;;;-1.34;100.00
47366;BME280;33105;47.964;7.982;2023-12-07T07:19:18;97037.25;;;-1.29;100.00
47366;BME280;33105;47.964;7.982;2023-12-07T07:22:19;97043.63;;;-1.30;100.00
47366;BME280;33105;47.964;7.982;2023-12-07T07:25:21;97049.66;;;-1.28;100.00
47366;BME280;33105;47.964;7.982;2023-12-07T07:28:23;97040.25;;;-1.24;100.00
47366;BME280;33105;47.964;7.982;2023-12-07T07:31:25;97041.34;;;-1.18;100.00
47366;BME280;33105;47.964;7.982;2023-12-07T07:34:27;97036.84;;;-1.41;100.00
47366;BME280;33105;47.964;7.982;2023-12-07T07:37:28;97038.50;;;-1.40;100.00
47366;BME280;33105;47.964;7.982;2023-12-07T07:40:31;97042.19;;;-1.41;100.00
47366;BME280;33105;47.964;7.982;2023-12-07T07:43:32;97044.53;;;-1.38;100.00
47366;BME280;33105;47.964;7.982;2023-12-07T07:46:35;97039.16;;;-1.38;100.00
47366;BME280;33105;47.964;7.982;2023-12-07T07:49:37;97033.00;;;-1.23;100.00
47366;BME280;33105;47.964;7.982;2023-12-07T07:52:38;97026.06;;;-1.32;100.00
47366;BME280;33105;47.964;7.982;2023-12-07T07:55:42;97013.81;;;-1.12;100.00
47366;BME280;33105;47.964;7.982;2023-12-07T07:58:43;97010.50;;;-0.85;100.00
47366;BME280;33105;47.964;7.982;2023-12-07T08:01:46;97015.59;;;-0.90;100.00
47366;BME280;33105;47.964;7.982;2023-12-07T08:04:48;97009.03;;;-0.58;100.00
47366;BME280;33105;47.964;7.982;2023-12-07T08:07:50;97015.50;;;-0.82;100.00
47366;BME280;33105;47.964;7.982;2023-12-07T08:10:52;97024.53;;;-0.97;100.00
47366;BME280;33105;47.964;7.982;2023-12-07T08:13:54;97034.88;;;-1.24;100.00
47366;BME280;33105;47.964;7.982;2023-12-07T08:16:56;97046.97;;;-1.28;100.00
47366;BME280;33105;47.964;7.982;2023-12-07T08:19:58;97043.81;;;-1.31;100.00
47366;BME280;33105;47.964;7.982;2023-12-07T08:23:00;97050.25;;;-1.41;100.00
47366;BME280;33105;47.964;7.982;2023-12-07T08:26:02;97042.56;;;-1.44;100.00
47366;BME280;33105;47.964;7.982;2023-12-07T08:29:04;97036.91;;;-1.26;100.00
47366;BME280;33105;47.964;7.982;2023-12-07T08:32:06;97027.34;;;-0.91;100.00
47366;BME280;33105;47.964;7.982;2023-12-07T08:35:08;97026.53;;;-0.77;100.00
47366;BME280;33105;47.964;7.982;2023-12-07T08:38:10;97026.41;;;-0.39;100.00
47366;BME280;33105;47.964;7.982;2023-12-07T08:41:12;97013.78;;;-0.24;100.00
47366;BME280;33105;47.964;7.982;2023-12-07T08:44:14;97008.81;;;-0.27;100.00
47366;BME280;33105;47.964;7.982;2023-12-07T08:47:17;97021.59;;;-0.29;100.00
47366;BME280;33105;47.964;7.982;2023-12-07T08:50:18;97027.34;;;-0.32;100.00
47366;BME280;33105;47.964;7.982;2023-12-07T08:53:19;97016.31;;;-0.37;100.00
47366;BME280;33105;47.964;7.982;2023-12-07T08:56:21;97018.31;;;-0.24;100.00
47366;BME280;33105;47.964;7.982;2023-12-07T08:59:23;97016.22;;;-0.29;100.00
47366;BME280;33105;47.964;7.982;2023-12-07T09:02:25;97018.41;;;-0.18;100.00
47366;BME280;33105;47.964;7.982;2023-12-07T09:05:26;97004.84;;;-0.31;100.00
47366;BME280;33105;47.964;7.982;2023-12-07T09:08:28;97007.38;;;-0.59;100.00
47366;BME280;33105;47.964;7.982;2023-12-07T09:11:30;97004.09;;;-0.25;100.00
47366;BME280;33105;47.964;7.982;2023-12-07T09:14:32;96994.19;;;-0.39;100.00
47366;BME280;33105;47.964;7.982;2023-12-07T09:17:34;96997.53;;;-0.37;100.00
47366;BME280;33105;47.964;7.982;2023-12-07T09:20:37;96998.38;;;-0.01;100.00
47366;BME280;33105;47.964;7.982;2023-12-07T09:23:47;96999.06;;;-0.13;100.00
47366;BME280;33105;47.964;7.982;2023-12-07T09:26:48;96994.91;;;0.06;100.00
47366;BME280;33105;47.964;7.982;2023-12-07T09:29:50;96994.09;;;0.05;100.00
47366;BME280;33105;47.964;7.982;2023-12-07T09:32:52;96998.06;;;0.52;100.00
47366;BME280;33105;47.964;7.982;2023-12-07T09:35:54;96996.97;;;0.25;100.00
47366;BME280;33105;47.964;7.982;2023-12-07T09:38:55;97003.25;;;0.32;100.00
47366;BME280;33105;47.964;7.982;2023-12-07T09:41:56;96999.66;;;0.25;100.00
47366;BME280;33105;47.964;7.982;2023-12-07T09:44:58;96999.03;;;0.23;100.00
47366;BME280;33105;47.964;7.982;2023-12-07T09:48:00;96978.56;;;0.43;100.00
47366;BME280;33105;47.964;7.982;2023-12-07T09:51:03;96976.81;;;0.36;100.00
47366;BME280;33105;47.964;7.982;2023-12-07T09:54:05;96971.44;;;0.57;100.00
47366;BME280;33105;47.964;7.982;2023-12-07T09:57:07;96954.84;;;0.53;100.00
47366;BME280;33105;47.964;7.982;2023-12-07T10:00:12;96961.75;;;0.62;100.00
47366;BME280;33105;47.964;7.982;2023-12-07T10:03:21;96958.38;;;0.54;100.00
47366;BME280;33105;47.964;7.982;2023-12-07T10:06:26;96957.31;;;0.48;100.00
47366;BME280;33105;47.964;7.982;2023-12-07T10:09:27;96959.03;;;0.84;100.00
47366;BME280;33105;47.964;7.982;2023-12-07T10:12:30;96962.44;;;0.22;100.00
47366;BME280;33105;47.964;7.982;2023-12-07T10:15:32;96958.22;;;0.34;100.00
47366;BME280;33105;47.964;7.982;2023-12-07T10:18:35;96951.91;;;0.70;100.00
47366;BME280;33105;47.964;7.982;2023-12-07T10:21:37;96950.50;;;0.52;100.00
47366;BME280;33105;47.964;7.982;2023-12-07T10:24:38;96941.13;;;0.97;100.00
47366;BME280;33105;47.964;7.982;2023-12-07T10:27:44;96945.56;;;0.84;100.00
47366;BME280;33105;47.964;7.982;2023-12-07T10:30:47;96938.06;;;1.07;100.00
47366;BME280;33105;47.964;7.982;2023-12-07T10:33:51;96935.38;;;0.73;100.00
47366;BME280;33105;47.964;7.982;2023-12-07T10:36:53;96927.91;;;1.02;100.00
47366;BME280;33105;47.964;7.982;2023-12-07T10:39:57;96922.25;;;0.91;100.00
47366;BME280;33105;47.964;7.982;2023-12-07T10:42:58;96913.06;;;0.79;100.00
47366;BME280;33105;47.964;7.982;2023-12-07T10:46:05;96914.72;;;0.80;100.00
47366;BME280;33105;47.964;7.982;2023-12-07T10:49:12;96896.53;;;1.16;100.00
47366;BME280;33105;47.964;7.982;2023-12-07T10:52:22;96899.63;;;0.79;100.00
47366;BME280;33105;47.964;7.982;2023-12-07T10:55:28;96891.34;;;0.74;100.00
47366;BME280;33105;47.964;7.982;2023-12-07T10:58:35;96885.53;;;1.11;100.00
47366;BME280;33105;47.964;7.982;2023-12-07T11:01:40;96871.59;;;1.49;100.00
47366;BME280;33105;47.964;7.982;2023-12-07T11:04:42;96870.38;;;1.45;100.00
47366;BME280;33105;47.964;7.982;2023-12-07T11:08:11;96872.75;;;1.26;100.00
47366;BME280;33105;47.964;7.982;2023-12-07T11:11:31;96853.38;;;1.44;100.00
47366;BME280;33105;47.964;7.982;2023-12-07T11:14:34;96847.00;;;1.04;100.00
47366;BME280;33105;47.964;7.982;2023-12-07T11:17:55;96826.25;;;1.52;100.00
47366;BME280;33105;47.964;7.982;2023-12-07T11:20:57;96818.59;;;1.43;100.00
47366;BME280;33105;47.964;7.982;2023-12-07T11:24:00;96809.81;;;1.27;100.00
47366;BME280;33105;47.964;7.982;2023-12-07T11:27:02;96809.19;;;1.25;100.00
47366;BME280;33105;47.964;7.982;2023-12-07T11:30:05;96801.56;;;1.29;100.00
47366;BME280;33105;47.964;7.982;2023-12-07T11:33:09;96794.75;;;1.33;100.00
47366;BME280;33105;47.964;7.982;2023-12-07T11:36:12;96793.31;;;1.37;100.00
47366;BME280;33105;47.964;7.982;2023-12-07T11:42:17;96767.59;;;1.28;100.00
47366;BME280;33105;47.964;7.982;2023-12-07T11:45:38;96764.31;;;1.32;100.00
47366;BME280;33105;47.964;7.982;2023-12-07T11:48:46;96758.78;;;1.67;100.00
47366;BME280;33105;47.964;7.982;2023-12-07T11:51:48;96746.75;;;2.22;94.08
47366;BME280;33105;47.964;7.982;2023-12-07T11:54:50;96738.25;;;1.86;93.56
47366;BME280;33105;47.964;7.982;2023-12-07T11:57:51;96747.16;;;1.86;96.48
47366;BME280;33105;47.964;7.982;2023-12-07T12:00:53;96737.00;;;2.15;93.60
47366;BME280;33105;47.964;7.982;2023-12-07T12:03:55;96725.88;;;2.69;90.01
47366;BME280;33105;47.964;7.982;2023-12-07T12:06:58;96717.00;;;3.00;85.37
47366;BME280;33105;47.964;7.982;2023-12-07T12:10:02;96720.31;;;2.51;89.86
47366;BME280;33105;47.964;7.982;2023-12-07T12:13:06;96714.03;;;2.70;92.53
47366;BME280;33105;47.964;7.982;2023-12-07T12:16:08;96718.72;;;2.88;89.37
47366;BME280;33105;47.964;7.982;2023-12-07T12:19:10;96720.09;;;3.03;86.95
47366;BME280;33105;47.964;7.982;2023-12-07T12:22:21;96720.31;;;3.40;83.29
47366;BME280;33105;47.964;7.982;2023-12-07T12:34:11;96723.63;;;2.59;94.69
47366;BME280;33105;47.964;7.982;2023-12-07T12:37:27;96729.03;;;3.04;88.58
47366;BME280;33105;47.964;7.982;2023-12-07T12:41:10;96734.09;;;3.25;86.78
47366;BME280;33105;47.964;7.982;2023-12-07T12:48:58;96738.25;;;3.28;87.14
47366;BME280;33105;47.964;7.982;2023-12-07T12:52:00;96745.00;;;2.54;93.50
47366;BME280;33105;47.964;7.982;2023-12-07T12:55:01;96743.75;;;2.57;92.79
47366;BME280;33105;47.964;7.982;2023-12-07T12:58:06;96743.88;;;2.82;91.93
47366;BME280;33105;47.964;7.982;2023-12-07T13:01:08;96740.41;;;2.61;95.90
47366;BME280;33105;47.964;7.982;2023-12-07T13:04:09;96732.81;;;2.38;99.79
47366;BME280;33105;47.964;7.982;2023-12-07T13:07:12;96742.38;;;2.08;100.00
47366;BME280;33105;47.964;7.982;2023-12-07T13:10:15;96753.59;;;1.85;100.00
47366;BME280;33105;47.964;7.982;2023-12-07T13:13:22;96739.47;;;2.03;100.00
47366;BME280;33105;47.964;7.982;2023-12-07T13:16:23;96736.16;;;2.01;100.00
47366;BME280;33105;47.964;7.982;2023-12-07T13:19:24;96742.81;;;1.85;100.00
47366;BME280;33105;47.964;7.982;2023-12-07T13:22:26;96727.44;;;2.25;100.00
47366;BME280;33105;47.964;7.982;2023-12-07T13:25:27;96708.59;;;2.19;100.00
47366;BME280;33105;47.964;7.982;2023-12-07T13:28:28;96700.97;;;1.96;100.00
47366;BME280;33105;47.964;7.982;2023-12-07T13:31:29;96689.53;;;2.00;100.00
47366;BME280;33105;47.964;7.982;2023-12-07T13:34:31;96697.59;;;2.14;100.00
47366;BME280;33105;47.964;7.982;2023-12-07T13:37:32;96684.34;;;2.19;100.00
47366;BME280;33105;47.964;7.982;2023-12-07T13:40:33;96678.56;;;2.02;100.00
47366;BME280;33105;47.964;7.982;2023-12-07T13:43:38;96691.03;;;1.96;100.00
47366;BME280;33105;47.964;7.982;2023-12-07T13:46:42;96690.56;;;2.06;100.00
47366;BME280;33105;47.964;7.982;2023-12-07T13:49:43;96677.72;;;2.01;100.00
47366;BME280;33105;47.964;7.982;2023-12-07T13:52:44;96674.19;;;2.01;100.00
47366;BME280;33105;47.964;7.982;2023-12-07T13:55:46;96661.38;;;1.96;100.00
47366;BME280;33105;47.964;7.982;2023-12-07T13:58:55;96650.56;;;2.03;100.00
47366;BME280;33105;47.964;7.982;2023-12-07T14:01:57;96638.31;;;2.14;100.00
47366;BME280;33105;47.964;7.982;2023-12-07T14:05:04;96627.28;;;2.28;100.00
47366;BME280;33105;47.964;7.982;2023-12-07T14:08:07;96625.84;;;2.26;100.00
47366;BME280;33105;47.964;7.982;2023-12-07T14:11:11;96611.59;;;2.05;100.00
47366;BME280;33105;47.964;7.982;2023-12-07T14:14:13;96620.97;;;1.96;100.00
47366;BME280;33105;47.964;7.982;2023-12-07T14:17:15;96608.75;;;1.87;100.00
47366;BME280;33105;47.964;7.982;2023-12-07T14:20:17;96602.34;;;1.88;100.00
47366;BME280;33105;47.964;7.982;2023-12-07T14:23:18;96582.91;;;1.73;100.00
47366;BME280;33105;47.964;7.982;2023-12-07T14:26:20;96583.13;;;1.65;100.00
47366;BME280;33105;47.964;7.982;2023-12-07T14:29:21;96575.66;;;1.67;100.00
47366;BME280;33105;47.964;7.982;2023-12-07T14:32:24;96576.69;;;1.66;100.00
47366;BME280;33105;47.964;7.982;2023-12-07T14:35:25;96575.88;;;1.59;100.00
47366;BME280;33105;47.964;7.982;2023-12-07T14:38:27;96571.53;;;1.58;100.00
47366;BME280;33105;47.964;7.982;2023-12-07T14:41:28;96574.22;;;1.58;100.00
47366;BME280;33105;47.964;7.982;2023-12-07T14:44:29;96576.13;;;1.38;100.00
47366;BME280;33105;47.964;7.982;2023-12-07T14:47:30;96564.13;;;1.47;100.00
47366;BME280;33105;47.964;7.982;2023-12-07T14:50:32;96556.88;;;1.34;100.00
47366;BME280;33105;47.964;7.982;2023-12-07T14:53:34;96562.69;;;1.11;100.00
47366;BME280;33105;47.964;7.982;2023-12-07T14:56:37;96558.97;;;1.12;100.00
47366;BME280;33105;47.964;7.982;2023-12-07T14:59:42;96560.19;;;1.03;100.00
47366;BME280;33105;47.964;7.982;2023-12-07T15:02:50;96564.13;;;0.87;100.00
47366;BME280;33105;47.964;7.982;2023-12-07T15:06:09;96565.16;;;0.80;100.00
47366;BME280;33105;47.964;7.982;2023-12-07T15:09:11;96558.13;;;0.85;100.00
47366;BME280;33105;47.964;7.982;2023-12-07T15:12:13;96567.25;;;0.91;100.00
47366;BME280;33105;47.964;7.982;2023-12-07T15:15:15;96567.03;;;0.92;100.00
47366;BME280;33105;47.964;7.982;2023-12-07T15:18:16;96564.56;;;0.91;100.00
47366;BME280;33105;47.964;7.982;2023-12-07T15:21:18;96562.47;;;0.99;100.00
47366;BME280;33105;47.964;7.982;2023-12-07T15:24:21;96550.88;;;1.12;100.00
47366;BME280;33105;47.964;7.982;2023-12-07T15:27:26;96541.38;;;0.90;100.00
47366;BME280;33105;47.964;7.982;2023-12-07T15:30:30;96544.47;;;0.87;100.00
47366;BME280;33105;47.964;7.982;2023-12-07T15:33:35;96519.84;;;0.77;100.00
47366;BME280;33105;47.964;7.982;2023-12-07T15:36:36;96532.06;;;0.66;100.00
47366;BME280;33105;47.964;7.982;2023-12-07T15:39:41;96525.44;;;0.88;100.00
47366;BME280;33105;47.964;7.982;2023-12-07T15:42:46;96521.06;;;0.54;100.00
47366;BME280;33105;47.964;7.982;2023-12-07T15:45:47;96525.41;;;0.55;100.00
47366;BME280;33105;47.964;7.982;2023-12-07T15:48:49;96513.84;;;0.55;100.00
47366;BME280;33105;47.964;7.982;2023-12-07T15:51:50;96524.81;;;0.47;100.00
47366;BME280;33105;47.964;7.982;2023-12-07T15:54:52;96510.56;;;0.73;100.00
47366;BME280;33105;47.964;7.982;2023-12-07T15:57:54;96513.00;;;0.41;100.00
47366;BME280;33105;47.964;7.982;2023-12-07T16:00:55;96520.00;;;0.29;100.00
47366;BME280;33105;47.964;7.982;2023-12-07T16:03:56;96509.84;;;0.18;100.00
47366;BME280;33105;47.964;7.982;2023-12-07T16:06:58;96508.44;;;0.35;100.00
47366;BME280;33105;47.964;7.982;2023-12-07T16:10:00;96506.81;;;0.47;100.00
47366;BME280;33105;47.964;7.982;2023-12-07T16:13:01;96496.03;;;0.21;100.00
47366;BME280;33105;47.964;7.982;2023-12-07T16:16:02;96505.13;;;0.33;100.00
47366;BME280;33105;47.964;7.982;2023-12-07T16:19:04;96499.72;;;0.26;100.00
47366;BME280;33105;47.964;7.982;2023-12-07T16:22:05;96481.13;;;0.25;100.00
47366;BME280;33105;47.964;7.982;2023-12-07T16:25:07;96469.56;;;0.18;100.00